Time;durP1;ratioP1;P1;durP2;ratioP2;P2;SDS_P1;SDS_P2;PMS_P1;PMS_P2;Temp;Humidity;BMP_temperature;BMP_pressure;BME280_temperature;BME280_humidity;BME280_pressure;Samples;Min_cycle;Max_cycle;Signal;HPM_P1;HPM_P2
2021/08/06 00:02:05;;;;;;;9.17;8.27;;;16.90;99.90;;;;;;5067519;28;20465;-81
2021/08/06 00:04:35;;;;;;;8.50;7.80;;;16.80;99.90;;;;;;5085237;28;20419;-80
2021/08/06 00:07:04;;;;;;;9.50;7.90;;;16.70;99.90;;;;;;5068558;28;20436;-81
2021/08/06 00:09:37;;;;;;;7.70;7.00;;;16.80;99.90;;;;;;5084467;28;20975;-80
2021/08/06 00:12:09;;;;;;;10.80;8.80;;;16.70;99.90;;;;;;5090082;28;20472;-82
2021/08/06 00:14:39;;;;;;;8.67;7.97;;;16.90;99.90;;;;;;5071395;28;20437;-81
2021/08/06 00:17:08;;;;;;;8.77;7.97;;;16.80;99.90;;;;;;5087895;28;20393;-81
2021/08/06 00:19:37;;;;;;;7.53;6.77;;;16.90;99.90;;;;;;5069869;28;20466;-82
2021/08/06 00:22:06;;;;;;;7.03;6.40;;;16.90;99.90;;;;;;5070629;28;20462;-83
2021/08/06 00:24:35;;;;;;;7.93;7.13;;;16.90;99.90;;;;;;5070738;28;20525;-81
2021/08/06 00:27:04;;;;;;;8.67;7.50;;;17.00;99.90;;;;;;5086424;28;20469;-81
2021/08/06 00:29:34;;;;;;;9.40;7.73;;;16.90;99.90;;;;;;5070735;28;20433;-80
2021/08/06 00:32:14;;;;;;;7.33;6.63;;;17.20;99.90;;;;;;5069488;28;20466;-81
2021/08/06 00:34:45;;;;;;;7.73;7.03;;;17.40;99.90;;;;;;5087433;28;20481;-82
2021/08/06 00:37:14;;;;;;;7.87;7.17;;;17.50;99.90;;;;;;5085426;28;20462;-82
2021/08/06 00:39:46;;;;;;;7.07;6.57;;;17.70;99.90;;;;;;5085789;28;20455;-81
2021/08/06 00:42:16;;;;;;;7.40;6.80;;;17.70;99.90;;;;;;5085063;28;20488;-81
2021/08/06 00:44:46;;;;;;;9.37;8.47;;;17.70;99.90;;;;;;5069381;28;20448;-82
2021/08/06 00:47:19;;;;;;;7.33;6.63;;;17.80;99.90;;;;;;5083695;28;20430;-82
2021/08/06 00:50:40;;;;;;;7.73;7.10;;;17.80;99.90;;;;;;5058371;28;20409;-81
2021/08/06 00:53:49;;;;;;;8.80;7.20;;;17.70;99.90;;;;;;5069219;28;20469;-82
2021/08/06 00:57:23;;;;;;;6.60;6.00;;;17.80;99.90;;;;;;5076572;28;20509;-82
2021/08/06 01:00:04;;;;;;;6.77;6.17;;;17.90;99.90;;;;;;5071544;28;20450;-82
2021/08/06 01:03:20;;;;;;;7.73;6.80;;;17.90;99.90;;;;;;5070553;28;20462;-82
2021/08/06 01:06:10;;;;;;;7.93;7.20;;;17.90;99.90;;;;;;5067542;28;20441;-81
2021/08/06 01:08:52;;;;;;;8.37;7.60;;;17.80;99.90;;;;;;5071363;28;20443;-82
2021/08/06 01:11:25;;;;;;;9.07;8.17;;;17.70;99.90;;;;;;5088168;28;20445;-82
2021/08/06 01:13:58;;;;;;;7.67;6.90;;;17.70;99.90;;;;;;5071466;28;20432;-82
2021/08/06 01:16:30;;;;;;;6.53;5.93;;;18.00;99.90;;;;;;5087768;28;20416;-82
2021/08/06 01:19:23;;;;;;;7.03;6.43;;;18.10;99.90;;;;;;5088485;28;20529;-82
2021/08/06 01:22:04;;;;;;;7.17;6.57;;;18.20;99.90;;;;;;5074154;28;20439;-82
2021/08/06 01:24:41;;;;;;;8.53;6.87;;;18.10;99.90;;;;;;5078540;28;20401;-82
2021/08/06 01:27:12;;;;;;;7.73;7.13;;;18.10;99.90;;;;;;5073865;28;20420;-82
2021/08/06 01:29:42;;;;;;;8.90;8.00;;;18.00;99.90;;;;;;5072879;28;20517;-83
2021/08/06 01:32:10;;;;;;;7.63;6.93;;;18.00;99.90;;;;;;5072074;28;20454;-81
2021/08/06 01:34:43;;;;;;;10.00;7.23;;;18.00;99.90;;;;;;5089833;28;20409;-83
2021/08/06 01:37:12;;;;;;;9.33;7.57;;;18.10;99.90;;;;;;5071950;28;20529;-82
2021/08/06 01:39:46;;;;;;;9.63;8.70;;;17.90;99.90;;;;;;5088967;28;20437;-83
2021/08/06 01:42:24;;;;;;;8.43;7.47;;;17.90;99.90;;;;;;5071507;28;20462;-82
2021/08/06 01:48:50;;;;;;;11.23;6.97;;;18.10;99.90;;;;;;5086868;28;20438;-81
2021/08/06 01:51:22;;;;;;;6.23;5.63;;;18.10;99.90;;;;;;5071362;28;20438;-82
2021/08/06 01:53:56;;;;;;;7.83;7.10;;;18.20;99.90;;;;;;5071408;28;20419;-82
2021/08/06 01:56:29;;;;;;;8.20;7.50;;;17.90;99.90;;;;;;5075759;28;20449;-82
2021/08/06 01:59:02;;;;;;;7.90;7.30;;;17.80;99.90;;;;;;5075803;28;20476;-83
2021/08/06 02:01:40;;;;;;;8.57;7.70;;;17.70;99.90;;;;;;5091348;28;20438;-82
2021/08/06 02:04:14;;;;;;;8.20;7.50;;;17.70;99.90;;;;;;5073851;28;20412;-82
2021/08/06 02:06:50;;;;;;;8.83;8.03;;;17.70;99.90;;;;;;5071038;28;20396;-82
2021/08/06 02:09:25;;;;;;;8.03;7.20;;;17.80;99.90;;;;;;5074651;28;20440;-82
2021/08/06 02:11:55;;;;;;;7.23;6.70;;;18.00;99.90;;;;;;5090427;28;20914;-82
2021/08/06 02:14:43;;;;;;;8.20;7.40;;;18.10;99.90;;;;;;5091189;28;20564;-82
2021/08/06 02:17:14;;;;;;;8.57;7.77;;;18.00;99.90;;;;;;5074166;28;20415;-82
2021/08/06 02:19:45;;;;;;;7.40;6.70;;;18.10;99.90;;;;;;5074392;28;20487;-82
2021/08/06 02:22:16;;;;;;;8.53;7.80;;;18.00;99.90;;;;;;5073489;28;20482;-81
2021/08/06 02:24:51;;;;;;;9.10;8.30;;;18.00;99.90;;;;;;5073401;28;20527;-81
2021/08/06 02:27:24;;;;;;;7.50;6.80;;;17.90;99.90;;;;;;5070452;28;20423;-82
2021/08/06 02:29:59;;;;;;;8.47;7.70;;;18.10;99.90;;;;;;5072300;28;20428;-81
2021/08/06 02:32:31;;;;;;;7.67;6.97;;;18.20;99.90;;;;;;5073237;28;20464;-81
2021/08/06 02:35:03;;;;;;;8.27;7.53;;;18.00;99.90;;;;;;5073985;28;20444;-82
2021/08/06 02:37:36;;;;;;;7.77;6.97;;;18.20;99.90;;;;;;5073537;28;20430;-82
2021/08/06 02:40:06;;;;;;;9.10;8.20;;;18.10;99.90;;;;;;5090047;28;20437;-82
2021/08/06 02:42:36;;;;;;;7.93;7.23;;;18.00;99.90;;;;;;5074294;28;20443;-82
2021/08/06 02:45:09;;;;;;;9.37;7.77;;;18.00;99.90;;;;;;5072905;28;20428;-81
2021/08/06 02:47:37;;;;;;;9.43;7.60;;;18.00;99.90;;;;;;5070865;28;20533;-81
2021/08/06 02:50:07;;;;;;;7.63;6.97;;;18.10;99.90;;;;;;5087901;28;20427;-81
2021/08/06 02:52:36;;;;;;;8.30;7.50;;;18.00;99.90;;;;;;5074064;28;20463;-81
2021/08/06 02:55:06;;;;;;;7.07;6.40;;;17.90;99.90;;;;;;5073214;28;20439;-80
2021/08/06 02:57:37;;;;;;;8.23;7.50;;;17.90;99.90;;;;;;5073011;28;20461;-81
2021/08/06 03:00:09;;;;;;;7.67;6.97;;;18.00;99.90;;;;;;5091026;28;20466;-81
2021/08/06 03:02:39;;;;;;;8.17;7.37;;;18.00;99.90;;;;;;5073805;28;20452;-82
2021/08/06 03:05:08;;;;;;;7.20;6.57;;;17.90;99.90;;;;;;5072846;28;20428;-82
2021/08/06 03:07:38;;;;;;;8.73;7.93;;;17.90;99.90;;;;;;5070969;28;20506;-81
2021/08/06 03:10:08;;;;;;;7.90;7.20;;;17.90;99.90;;;;;;5087177;28;20435;-82
2021/08/06 03:12:38;;;;;;;7.87;7.03;;;17.90;99.90;;;;;;5073778;28;20545;-82
2021/08/06 03:15:10;;;;;;;9.20;8.40;;;17.90;99.90;;;;;;5090605;28;20445;-81
2021/08/06 03:17:41;;;;;;;8.50;7.23;;;18.00;99.90;;;;;;5073666;28;20441;-82
2021/08/06 03:20:12;;;;;;;11.63;10.63;;;17.90;99.90;;;;;;5072875;28;20440;-82
2021/08/06 03:22:44;;;;;;;9.50;8.70;;;17.90;99.90;;;;;;5073402;28;20432;-83
2021/08/06 03:25:13;;;;;;;9.33;8.43;;;17.90;99.90;;;;;;5072807;28;20439;-81
2021/08/06 03:27:42;;;;;;;11.73;8.63;;;18.00;99.90;;;;;;5070709;28;20476;-82
2021/08/06 03:30:15;;;;;;;7.40;6.80;;;18.00;99.90;;;;;;5067273;28;20406;-81
2021/08/06 03:32:44;;;;;;;8.30;7.50;;;18.10;99.90;;;;;;5089280;28;20462;-83
2021/08/06 03:35:14;;;;;;;7.73;6.77;;;18.10;99.90;;;;;;5072794;28;20431;-82
2021/08/06 03:37:45;;;;;;;7.90;7.03;;;18.30;99.90;;;;;;5073005;28;20427;-81
2021/08/06 03:40:14;;;;;;;6.43;5.90;;;18.30;99.90;;;;;;5091444;28;20437;-81
2021/08/06 03:42:45;;;;;;;8.60;6.87;;;18.30;99.90;;;;;;5087726;28;20520;-81
2021/08/06 03:45:16;;;;;;;6.80;6.20;;;18.30;99.90;;;;;;5073678;28;20461;-82
2021/08/06 03:47:45;;;;;;;10.83;7.47;;;18.40;99.90;;;;;;5057630;28;20413;-81
2021/08/06 03:50:14;;;;;;;9.30;7.50;;;18.40;99.30;;;;;;5058935;28;20476;-83
2021/08/06 03:52:43;;;;;;;6.63;6.03;;;18.40;99.10;;;;;;5063202;28;20466;-81
2021/08/06 03:55:12;;;;;;;7.33;6.60;;;18.50;98.40;;;;;;5058778;28;20919;-81
2021/08/06 03:57:50;;;;;;;8.20;7.40;;;18.50;97.80;;;;;;5059879;28;20417;-81
2021/08/06 04:00:22;;;;;;;7.53;6.80;;;18.50;96.80;;;;;;5063852;28;20412;-81
2021/08/06 04:02:52;;;;;;;7.70;6.90;;;18.50;95.90;;;;;;5079113;28;20894;-82
2021/08/06 04:05:24;;;;;;;7.77;7.03;;;18.60;95.60;;;;;;5074081;28;20411;-83
2021/08/06 04:07:56;;;;;;;7.93;7.23;;;18.50;95.90;;;;;;5089343;28;20494;-83
2021/08/06 04:10:27;;;;;;;7.00;6.40;;;18.50;97.10;;;;;;5071946;28;20437;-81
2021/08/06 04:12:57;;;;;;;13.90;6.90;;;18.50;97.30;;;;;;5086901;28;20520;-82
2021/08/06 04:15:28;;;;;;;8.53;7.73;;;18.50;96.30;;;;;;5067045;28;20879;-82
2021/08/06 04:17:57;;;;;;;7.10;6.50;;;18.40;96.60;;;;;;5084224;28;20453;-81
2021/08/06 04:20:26;;;;;;;8.00;7.30;;;18.30;97.90;;;;;;5084894;28;20515;-82
2021/08/06 04:22:56;;;;;;;8.23;7.53;;;18.40;98.10;;;;;;5059177;28;20461;-83
2021/08/06 04:25:26;;;;;;;7.73;7.00;;;18.40;96.40;;;;;;5059162;28;20446;-81
2021/08/06 04:27:54;;;;;;;9.03;8.13;;;18.40;96.10;;;;;;5059265;28;20454;-81
2021/08/06 04:30:23;;;;;;;8.50;7.63;;;18.40;96.70;;;;;;5059897;28;20442;-82
2021/08/06 04:32:53;;;;;;;7.80;7.00;;;18.30;97.20;;;;;;5078642;28;20462;-81
2021/08/06 04:35:22;;;;;;;9.10;8.30;;;18.30;99.40;;;;;;5077981;28;20434;-81
2021/08/06 04:37:53;;;;;;;10.80;9.70;;;18.30;99.90;;;;;;5061865;28;20438;-82
2021/08/06 04:40:28;;;;;;;10.90;9.80;;;18.20;99.90;;;;;;5064138;28;20524;-81
2021/08/06 04:43:00;;;;;;;9.60;8.80;;;18.00;99.90;;;;;;5079251;28;20482;-82
2021/08/06 04:45:30;;;;;;;9.30;8.40;;;17.70;99.90;;;;;;5067894;28;20450;-82
2021/08/06 04:48:03;;;;;;;11.00;9.90;;;17.40;99.90;;;;;;5067576;28;20441;-83
2021/08/06 04:50:36;;;;;;;11.90;10.80;;;17.40;99.90;;;;;;5067970;28;20434;-82
2021/08/06 04:53:05;;;;;;;9.67;8.87;;;17.20;99.90;;;;;;5073411;28;20509;-84
2021/08/06 04:55:35;;;;;;;10.67;9.60;;;17.30;99.90;;;;;;5075832;28;20430;-83
2021/08/06 04:58:08;;;;;;;9.50;8.60;;;17.30;99.90;;;;;;5092152;28;20498;-81
2021/08/06 05:00:37;;;;;;;9.10;8.30;;;17.30;99.90;;;;;;5073962;28;20434;-82
2021/08/06 05:03:11;;;;;;;13.70;9.50;;;17.30;99.90;;;;;;5077462;28;20523;-82
2021/08/06 05:05:46;;;;;;;8.70;7.90;;;17.30;99.90;;;;;;5093516;28;20437;-83
2021/08/06 05:08:15;;;;;;;8.93;8.13;;;17.30;99.90;;;;;;5078360;28;20409;-84
2021/08/06 05:10:44;;;;;;;8.73;8.03;;;17.20;99.90;;;;;;5094684;28;20434;-82
2021/08/06 05:13:13;;;;;;;8.70;7.90;;;17.20;99.90;;;;;;5078403;28;20549;-83
2021/08/06 05:15:43;;;;;;;9.60;8.67;;;17.30;99.90;;;;;;5092838;28;20450;-81
2021/08/06 05:18:13;;;;;;;8.70;8.00;;;17.30;99.90;;;;;;5075633;28;20455;-83
2021/08/06 05:20:42;;;;;;;9.57;8.60;;;17.30;99.90;;;;;;5074983;28;20438;-83
2021/08/06 05:23:11;;;;;;;10.73;9.77;;;17.30;99.90;;;;;;5075729;28;20513;-82
2021/08/06 05:25:40;;;;;;;10.20;9.30;;;17.40;99.90;;;;;;5069859;28;20911;-82
2021/08/06 05:28:11;;;;;;;12.10;8.60;;;17.40;99.90;;;;;;5074351;28;20438;-82
2021/08/06 05:30:40;;;;;;;10.37;8.80;;;17.50;99.90;;;;;;5061417;28;20431;-83
2021/08/06 05:33:09;;;;;;;9.80;8.80;;;17.50;99.90;;;;;;5081377;28;20491;-81
2021/08/06 05:35:39;;;;;;;8.70;7.90;;;17.40;99.90;;;;;;5084881;28;20456;-81
2021/08/06 05:38:08;;;;;;;9.77;8.87;;;17.40;99.90;;;;;;5079455;28;20438;-82
2021/08/06 05:40:41;;;;;;;9.97;9.07;;;17.40;99.90;;;;;;5063285;28;20414;-81
2021/08/06 05:43:12;;;;;;;10.93;9.93;;;17.40;99.90;;;;;;5080086;28;20581;-82
2021/08/06 05:45:43;;;;;;;10.13;9.10;;;17.40;99.90;;;;;;5067969;28;20413;-81
2021/08/06 05:48:13;;;;;;;8.93;8.13;;;17.60;99.90;;;;;;5075408;28;21112;-82
2021/08/06 05:50:44;;;;;;;11.63;9.73;;;17.70;99.90;;;;;;5087955;28;20434;-82
2021/08/06 05:53:24;;;;;;;9.70;8.90;;;17.90;99.90;;;;;;5095590;22;20477;-85
2021/08/06 05:55:58;;;;;;;10.30;9.30;;;18.00;99.90;;;;;;5097770;28;20486;-88
2021/08/06 05:58:29;;;;;;;9.00;8.20;;;18.10;99.90;;;;;;5098609;28;20419;-85
2021/08/06 06:01:02;;;;;;;8.80;8.00;;;18.30;99.90;;;;;;5098677;28;20425;-86
2021/08/06 06:03:42;;;;;;;9.47;8.53;;;18.20;99.90;;;;;;5095718;28;20482;-88
2021/08/06 06:06:41;;;;;;;9.63;8.83;;;18.30;99.90;;;;;;5095299;28;20451;-85
2021/08/06 06:09:09;;;;;;;9.80;8.83;;;18.50;99.90;;;;;;5100402;28;20991;-81
2021/08/06 06:11:38;;;;;;;9.87;8.10;;;18.30;99.90;;;;;;5099454;28;20441;-87
2021/08/06 06:14:19;;;;;;;9.27;8.37;;;18.30;99.90;;;;;;5098836;28;20420;-85
2021/08/06 06:17:18;;;;;;;9.03;8.13;;;18.30;99.90;;;;;;5086480;28;20400;-85
2021/08/06 06:20:21;;;;;;;11.27;9.00;;;18.30;99.90;;;;;;5085696;28;20404;-84
2021/08/06 06:23:04;;;;;;;11.37;10.37;;;18.30;99.90;;;;;;5081719;28;20436;-84
2021/08/06 06:25:45;;;;;;;10.60;9.60;;;18.10;99.90;;;;;;5095307;28;20428;-86
2021/08/06 06:28:39;;;;;;;15.73;10.50;;;18.00;99.90;;;;;;5079847;28;20458;-84
2021/08/06 06:34:33;;;;;;;10.47;9.37;;;18.60;99.90;;;;;;5081082;28;20866;-86
2021/08/06 06:37:11;;;;;;;10.87;10.00;;;19.10;99.90;;;;;;5080753;28;20950;-87
2021/08/06 06:39:53;;;;;;;9.60;8.70;;;19.30;99.90;;;;;;5097689;28;20421;-85
2021/08/06 06:42:21;;;;;;;9.80;8.77;;;19.50;99.90;;;;;;5082863;28;20981;-85
2021/08/06 06:44:55;;;;;;;9.83;9.00;;;19.90;97.80;;;;;;5081340;28;20541;-85
2021/08/06 06:47:23;;;;;;;13.67;9.83;;;20.20;95.50;;;;;;5075134;28;20407;-82
2021/08/06 06:50:01;;;;;;;10.27;9.37;;;20.40;92.80;;;;;;5076207;28;20971;-86
2021/08/06 06:52:48;;;;;;;9.90;9.00;;;20.50;91.10;;;;;;5093356;28;20681;-87
2021/08/06 06:55:18;;;;;;;9.50;8.70;;;20.60;86.40;;;;;;5079353;28;20405;-86
2021/08/06 06:57:50;;;;;;;11.17;10.17;;;20.70;82.30;;;;;;5077478;28;20380;-86
2021/08/06 07:00:25;;;;;;;9.87;9.00;;;20.90;75.90;;;;;;5077270;28;20477;-89
2021/08/06 07:03:02;;;;;;;9.53;8.67;;;21.10;65.80;;;;;;5079070;28;20484;-85
2021/08/06 07:05:34;;;;;;;11.23;10.27;;;21.20;59.50;;;;;;5076241;28;20408;-87
2021/08/06 07:08:16;;;;;;;9.90;9.00;;;21.30;58.10;;;;;;5077545;28;20445;-87
2021/08/06 07:13:51;;;;;;;12.37;10.87;;;21.50;53.00;;;;;;5078384;28;20439;-87
2021/08/06 07:16:30;;;;;;;11.00;10.00;;;21.50;49.80;;;;;;5077469;28;20420;-87
2021/08/06 07:19:09;;;;;;;10.20;9.30;;;21.70;47.30;;;;;;5078619;28;20420;-84
2021/08/06 07:21:52;;;;;;;11.90;10.80;;;21.60;44.90;;;;;;5078066;28;20476;-84
2021/08/06 07:24:42;;;;;;;11.30;10.30;;;21.50;44.40;;;;;;5079739;28;20447;-84
2021/08/06 07:27:24;;;;;;;11.90;10.77;;;21.50;44.00;;;;;;5081665;28;20449;-86
2021/08/06 07:29:55;;;;;;;12.10;8.50;;;21.70;42.30;;;;;;5078118;28;20928;-85
2021/08/06 07:32:28;;;;;;;10.40;9.40;;;21.70;40.80;;;;;;5078479;28;20824;-87
2021/08/06 07:34:57;;;;;;;11.03;9.87;;;21.90;39.90;;;;;;5079141;28;20423;-85
2021/08/06 07:37:30;;;;;;;11.00;9.90;;;21.90;42.50;;;;;;5095364;28;20432;-86
2021/08/06 07:40:14;;;;;;;11.20;10.30;;;22.00;36.80;;;;;;5079320;28;20407;-87
2021/08/06 07:42:50;;;;;;;10.80;9.80;;;22.10;35.20;;;;;;5076820;28;20470;-87
2021/08/06 07:45:22;;;;;;;10.67;9.60;;;22.00;33.20;;;;;;5079294;28;20483;-86
2021/08/06 07:47:56;;;;;;;11.70;10.47;;;22.10;30.00;;;;;;5066129;28;20442;-84
2021/08/06 07:50:25;;;;;;;11.90;8.60;;;22.20;28.60;;;;;;5093770;28;20380;-85
2021/08/06 07:52:55;;;;;;;10.40;7.97;;;22.20;28.10;;;;;;5090924;28;20475;-86
2021/08/06 07:55:28;;;;;;;7.93;7.23;;;22.20;25.00;;;;;;5080309;28;20937;-86
2021/08/06 07:58:10;;;;;;;8.77;7.97;;;22.10;21.20;;;;;;5076620;28;20853;-87
2021/08/06 08:00:50;;;;;;;8.70;7.80;;;22.50;21.70;;;;;;5061654;28;20513;-87
2021/08/06 08:03:27;;;;;;;8.63;7.93;;;22.70;19.10;;;;;;5077469;28;21046;-84
2021/08/06 08:06:05;;;;;;;8.47;7.60;;;22.90;17.40;;;;;;5062632;28;20768;-86
2021/08/06 08:08:40;;;;;;;8.73;7.90;;;23.20;16.40;;;;;;5079934;28;20393;-85
2021/08/06 08:11:18;;;;;;;8.60;7.67;;;23.30;14.10;;;;;;5079015;28;20809;-86
2021/08/06 08:13:56;;;;;;;6.90;6.30;;;23.50;14.20;;;;;;5078575;28;20930;-86
2021/08/06 08:16:31;;;;;;;7.10;6.50;;;23.60;11.40;;;;;;5079471;28;20476;-87
2021/08/06 08:19:07;;;;;;;6.80;6.20;;;23.50;8.70;;;;;;5078857;28;20498;-87
2021/08/06 08:21:36;;;;;;;6.10;5.60;;;23.50;7.50;;;;;;5081231;28;20393;-86
2021/08/06 08:24:05;;;;;;;5.30;4.80;;;23.70;3.60;;;;;;5082635;28;20444;-84
2021/08/06 08:26:35;;;;;;;5.23;4.73;;;23.50;1.50;;;;;;5081879;28;20460;-85
2021/08/06 08:29:05;;;;;;;5.37;4.90;;;23.60;1.00;;;;;;5081732;28;20415;-86
2021/08/06 08:31:33;;;;;;;5.93;5.37;;;23.90;1.00;;;;;;5080820;28;20403;-87
2021/08/06 08:34:02;;;;;;;7.03;5.33;;;24.10;1.00;;;;;;5078745;28;20874;-85
2021/08/06 08:36:31;;;;;;;4.80;4.40;;;24.50;1.00;;;;;;5077059;28;20438;-85
2021/08/06 08:39:01;;;;;;;4.77;4.37;;;24.60;1.00;;;;;;5077728;28;20422;-86
2021/08/06 08:41:33;;;;;;;6.27;4.80;;;24.60;1.00;;;;;;5078019;28;20415;-84
2021/08/06 08:44:03;;;;;;;4.97;4.57;;;24.70;1.00;;;;;;5077220;28;20454;-84
2021/08/06 08:46:34;;;;;;;4.47;4.07;;;24.50;1.00;;;;;;5080601;28;20437;-85
2021/08/06 08:49:04;;;;;;;5.30;4.27;;;24.20;1.00;;;;;;5076000;28;20438;-87
2021/08/06 08:51:37;;;;;;;4.70;3.60;;;24.00;1.00;;;;;;5076371;28;20477;-87
2021/08/06 08:54:07;;;;;;;4.00;3.50;;;23.90;1.00;;;;;;5077500;28;20473;-86
2021/08/06 08:56:37;;;;;;;4.17;3.87;;;24.00;1.00;;;;;;5077846;28;20468;-87
2021/08/06 08:59:09;;;;;;;4.70;4.30;;;24.00;1.00;;;;;;5075436;28;20976;-86
2021/08/06 09:01:39;;;;;;;4.63;4.23;;;23.90;1.00;;;;;;5098434;28;20452;-86
2021/08/06 09:04:26;;;;;;;4.67;4.30;;;23.80;1.00;;;;;;5078749;28;20520;-85
2021/08/06 09:06:56;;;;;;;4.43;3.80;;;23.50;1.00;;;;;;5080407;28;20408;-85
2021/08/06 09:09:36;;;;;;;3.10;2.90;;;23.50;1.00;;;;;;5075945;28;20443;-86
2021/08/06 09:12:09;;;;;;;3.40;3.03;;;23.60;1.00;;;;;;5076153;28;20429;-85
2021/08/06 09:15:02;;;;;;;3.40;3.10;;;23.90;1.00;;;;;;5076505;28;20488;-86
2021/08/06 09:17:37;;;;;;;3.70;3.40;;;24.20;1.00;;;;;;5074784;28;20817;-84
2021/08/06 09:20:09;;;;;;;3.70;3.40;;;24.20;1.00;;;;;;5076005;28;20432;-86
2021/08/06 09:22:42;;;;;;;4.00;3.70;;;24.40;1.00;;;;;;5075262;28;20487;-85
2021/08/06 09:25:13;;;;;;;5.77;4.30;;;24.30;1.00;;;;;;5076809;28;20820;-87
2021/08/06 09:27:47;;;;;;;3.53;3.10;;;24.30;1.00;;;;;;5085149;28;20480;-85
2021/08/06 09:30:33;;;;;;;3.47;3.17;;;24.30;1.00;;;;;;5084085;28;20407;-84
2021/08/06 09:33:02;;;;;;;4.17;3.77;;;24.50;1.00;;;;;;5087342;28;20466;-87
2021/08/06 09:35:32;;;;;;;3.70;3.40;;;24.60;1.00;;;;;;5085964;28;20464;-87
2021/08/06 09:38:02;;;;;;;4.00;3.60;;;24.50;1.00;;;;;;5089125;28;20431;-86
2021/08/06 09:40:32;;;;;;;3.17;2.80;;;24.10;1.00;;;;;;5088099;28;20434;-86
2021/08/06 09:43:04;;;;;;;5.33;4.70;;;24.10;1.00;;;;;;5088585;28;20466;-86
2021/08/06 09:45:39;;;;;;;4.43;4.03;;;24.30;1.00;;;;;;5075646;28;20474;-87
2021/08/06 09:48:10;;;;;;;4.90;3.70;;;24.50;1.00;;;;;;5081242;28;20408;-84
2021/08/06 09:50:43;;;;;;;4.30;3.07;;;24.80;1.00;;;;;;5077428;28;20434;-87
2021/08/06 09:53:13;;;;;;;3.97;3.67;;;25.00;1.00;;;;;;5076266;28;20485;-87
2021/08/06 09:55:46;;;;;;;3.00;2.80;;;24.90;1.00;;;;;;5077287;28;20446;-87
2021/08/06 09:58:17;;;;;;;2.57;2.30;;;25.00;1.00;;;;;;5079072;28;20438;-86
2021/08/06 10:00:49;;;;;;;3.20;2.90;;;25.20;1.00;;;;;;5089544;28;20430;-84
2021/08/06 10:03:29;;;;;;;2.93;2.70;;;25.00;1.00;;;;;;5092279;28;20425;-84
2021/08/06 10:06:08;;;;;;;4.97;2.90;;;25.10;1.00;;;;;;5110859;28;20401;-82
2021/08/06 10:08:38;;;;;;;2.60;2.37;;;25.40;1.00;;;;;;5095608;28;20405;-83
2021/08/06 10:11:07;;;;;;;3.10;2.80;;;25.70;1.00;;;;;;5094708;28;20445;-85
2021/08/06 10:13:35;;;;;;;2.17;1.87;;;25.80;1.00;;;;;;5094317;28;20464;-87
2021/08/06 10:16:06;;;;;;;2.93;2.60;;;25.80;1.00;;;;;;5095479;28;20429;-84
2021/08/06 10:18:35;;;;;;;5.30;2.70;;;25.90;1.00;;;;;;5099364;28;20411;-83
2021/08/06 10:21:03;;;;;;;4.60;3.30;;;26.10;1.00;;;;;;5099811;28;20410;-82
2021/08/06 10:23:32;;;;;;;3.60;2.40;;;26.40;1.00;;;;;;5099809;28;20457;-82
2021/08/06 10:26:01;;;;;;;2.47;1.97;;;26.50;1.00;;;;;;5099373;28;20566;-83
2021/08/06 10:28:31;;;;;;;2.70;2.50;;;26.30;1.00;;;;;;5099282;28;20419;-82
2021/08/06 10:31:16;;;;;;;3.20;2.80;;;26.10;1.00;;;;;;5099477;28;20405;-82
2021/08/06 10:34:03;;;;;;;3.13;2.77;;;26.20;1.00;;;;;;5099268;28;20439;-84
2021/08/06 10:36:40;;;;;;;3.17;2.60;;;26.30;1.00;;;;;;5099361;28;20440;-83
2021/08/06 10:39:42;;;;;;;3.00;2.57;;;25.90;1.00;;;;;;5098740;28;20466;-82
2021/08/06 10:42:11;;;;;;;2.47;2.27;;;25.90;1.00;;;;;;5099380;28;20506;-83
2021/08/06 10:44:53;;;;;;;2.50;2.30;;;25.60;1.00;;;;;;5091179;28;20466;-85
2021/08/06 10:47:23;;;;;;;3.60;2.70;;;25.80;1.00;;;;;;5088149;28;20439;-87
2021/08/06 10:50:14;;;;;;;3.67;3.00;;;25.70;1.00;;;;;;5078698;28;20477;-85
2021/08/06 10:52:42;;;;;;;3.13;2.00;;;25.70;1.00;;;;;;5079561;28;20458;-86
2021/08/06 10:55:19;;;;;;;3.13;2.73;;;25.60;1.00;;;;;;5079869;28;20419;-85
2021/08/06 10:57:47;;;;;;;2.53;2.33;;;25.70;1.00;;;;;;5078672;28;20410;-84
2021/08/06 11:00:34;;;;;;;3.80;2.90;;;25.80;1.00;;;;;;5079203;28;20619;-86
2021/08/06 11:03:04;;;;;;;3.60;2.80;;;26.20;1.00;;;;;;5079064;28;20458;-86
2021/08/06 11:05:41;;;;;;;2.60;2.40;;;26.30;1.00;;;;;;5078057;28;20522;-86
2021/08/06 11:08:49;;;;;;;3.53;2.57;;;26.20;1.00;;;;;;5077861;28;20460;-87
2021/08/06 11:11:45;;;;;;;4.80;3.00;;;26.20;1.00;;;;;;5077917;28;20417;-86
2021/08/06 11:14:19;;;;;;;4.03;2.57;;;26.40;1.00;;;;;;5077128;28;20943;-85
2021/08/06 11:17:01;;;;;;;3.13;2.40;;;26.70;1.00;;;;;;5080228;28;20469;-85
2021/08/06 11:19:33;;;;;;;2.77;2.57;;;27.00;1.00;;;;;;5077893;28;20444;-87
2021/08/06 11:22:04;;;;;;;2.80;2.23;;;27.10;1.00;;;;;;5080397;28;20461;-87
2021/08/06 11:24:37;;;;;;;3.20;2.30;;;27.20;1.00;;;;;;5081024;28;20948;-87
2021/08/06 11:27:06;;;;;;;3.37;3.07;;;27.10;1.00;;;;;;5077073;28;20431;-84
2021/08/06 11:29:34;;;;;;;3.90;2.80;;;26.70;1.00;;;;;;5077546;28;20974;-87
2021/08/06 11:32:06;;;;;;;2.80;2.60;;;26.50;1.00;;;;;;5083450;28;20468;-86
2021/08/06 11:34:53;;;;;;;2.90;2.70;;;26.50;1.00;;;;;;5092490;28;20403;-83
2021/08/06 11:37:27;;;;;;;3.10;2.67;;;26.60;1.00;;;;;;5079456;28;20541;-87
2021/08/06 11:40:07;;;;;;;3.03;2.67;;;26.60;1.00;;;;;;5078065;28;20445;-86
2021/08/06 11:42:37;;;;;;;2.63;2.30;;;27.00;1.00;;;;;;5078854;28;20527;-87
2021/08/06 11:45:08;;;;;;;2.63;2.43;;;27.00;1.00;;;;;;5078239;28;20498;-85
2021/08/06 11:47:40;;;;;;;2.80;2.60;;;26.80;1.00;;;;;;5078027;28;20838;-86
2021/08/06 11:50:12;;;;;;;3.50;3.20;;;26.70;1.00;;;;;;5077201;28;20445;-85
2021/08/06 11:52:42;;;;;;;3.23;2.87;;;26.40;1.00;;;;;;5117967;22;20569;-69
2021/08/06 11:55:13;;;;;;;4.10;2.87;;;26.30;1.00;;;;;;5093544;28;20424;-71
2021/08/06 11:57:53;;;;;;;3.00;2.70;;;26.20;1.00;;;;;;5093743;28;20451;-70
2021/08/06 12:00:25;;;;;;;4.53;4.10;;;26.10;1.00;;;;;;5112626;28;20416;-71
2021/08/06 12:03:04;;;;;;;3.57;3.07;;;26.10;1.00;;;;;;5110889;28;20399;-70
2021/08/06 12:05:35;;;;;;;3.20;2.90;;;26.20;1.00;;;;;;5110468;28;20538;-70
2021/08/06 12:08:24;;;;;;;3.13;2.70;;;26.00;1.00;;;;;;5111101;28;20425;-72
2021/08/06 12:10:56;;;;;;;3.40;2.90;;;25.80;1.00;;;;;;5111019;28;20476;-71
2021/08/06 12:13:25;;;;;;;4.03;2.30;;;25.90;1.00;;;;;;5110270;28;20967;-71
2021/08/06 12:16:02;;;;;;;3.20;2.70;;;26.10;1.00;;;;;;5092435;28;21058;-71
2021/08/06 12:18:31;;;;;;;2.90;2.70;;;26.30;1.00;;;;;;5110721;28;20926;-70
2021/08/06 12:21:02;;;;;;;2.87;2.50;;;26.30;1.00;;;;;;5110700;28;20531;-72
2021/08/06 12:23:31;;;;;;;4.60;3.80;;;26.40;1.00;;;;;;5110647;28;20417;-74
2021/08/06 12:26:13;;;;;;;6.67;3.30;;;26.10;1.00;;;;;;5110500;28;20453;-72
2021/08/06 12:28:43;;;;;;;2.83;2.60;;;26.10;1.00;;;;;;5110379;28;21036;-71
2021/08/06 12:31:18;;;;;;;3.37;3.07;;;26.00;1.00;;;;;;5110487;28;20415;-71
2021/08/06 12:33:51;;;;;;;3.37;3.07;;;26.00;1.00;;;;;;5110343;28;20488;-72
2021/08/06 12:36:22;;;;;;;3.20;2.90;;;25.90;1.00;;;;;;5092153;28;20775;-71
2021/08/06 12:38:51;;;;;;;3.40;3.10;;;25.80;1.00;;;;;;5110855;28;20425;-70
2021/08/06 12:41:31;;;;;;;3.90;3.10;;;25.80;1.00;;;;;;5114874;28;20447;-71
2021/08/06 12:44:17;;;;;;;2.53;2.33;;;26.00;1.00;;;;;;5114755;28;20530;-73
2021/08/06 12:47:19;;;;;;;3.27;2.97;;;26.10;1.00;;;;;;5117883;28;20547;-70
2021/08/06 12:49:55;;;;;;;3.30;3.00;;;26.00;1.00;;;;;;5099268;28;20436;-70
2021/08/06 12:52:26;;;;;;;2.50;2.10;;;26.40;1.00;;;;;;5117150;28;20490;-72
2021/08/06 12:55:05;;;;;;;2.73;2.43;;;26.50;1.00;;;;;;5118162;28;20443;-71
2021/08/06 12:57:49;;;;;;;3.00;2.60;;;26.80;1.00;;;;;;5118750;28;20436;-72
2021/08/06 13:00:28;;;;;;;3.80;2.70;;;27.10;1.00;;;;;;5120334;28;20941;-72
2021/08/06 13:03:15;;;;;;;2.83;2.50;;;27.40;1.00;;;;;;5114001;28;20852;-71
2021/08/06 13:05:57;;;;;;;2.80;2.50;;;26.60;1.00;;;;;;5110038;28;20463;-74
2021/08/06 13:08:29;;;;;;;4.33;2.80;;;26.30;1.00;;;;;;5110479;28;20426;-74
2021/08/06 13:11:10;;;;;;;3.27;2.67;;;26.40;1.00;;;;;;5109646;28;20444;-73
2021/08/06 13:13:40;;;;;;;3.57;2.40;;;26.90;1.00;;;;;;5110137;28;20416;-74
2021/08/06 13:16:12;;;;;;;3.27;2.97;;;27.40;1.00;;;;;;5109813;28;20440;-76
2021/08/06 13:18:40;;;;;;;2.83;2.63;;;27.60;1.00;;;;;;5110584;28;20459;-74
2021/08/06 13:21:11;;;;;;;2.90;2.60;;;27.70;1.00;;;;;;5110043;28;20965;-71
2021/08/06 13:23:41;;;;;;;3.70;3.20;;;27.90;1.00;;;;;;5110525;28;20409;-71
2021/08/06 13:26:11;;;;;;;2.57;2.33;;;28.20;1.00;;;;;;5109116;28;20506;-70
2021/08/06 13:28:39;;;;;;;2.57;2.37;;;28.40;1.00;;;;;;5110140;28;20915;-71
2021/08/06 13:31:08;;;;;;;2.47;2.27;;;28.70;1.00;;;;;;5109264;28;20867;-71
2021/08/06 13:33:36;;;;;;;2.60;2.40;;;28.50;1.00;;;;;;5109792;28;20424;-71
2021/08/06 13:36:07;;;;;;;3.03;2.47;;;28.50;1.00;;;;;;5109498;28;20435;-70